createdAt,value
2019-04-22T00:01:31.185Z,11.12
2019-04-22T00:04:47.493Z,11.09
2019-04-22T00:08:14.942Z,11.02
2019-04-22T00:11:26.061Z,11.05
2019-04-22T00:14:24.518Z,11.09
2019-04-22T00:17:54.852Z,11.02
2019-04-22T00:21:16.059Z,11.06
2019-04-22T00:24:29.988Z,10.90
2019-04-22T00:27:48.999Z,11.02
2019-04-22T00:31:15.484Z,11.01
2019-04-22T00:34:22.844Z,10.97
2019-04-22T00:37:57.015Z,10.92
2019-04-22T00:41:14.897Z,10.86
2019-04-22T00:44:37.298Z,10.78
2019-04-22T00:47:38.202Z,10.78
2019-04-22T00:51:01.646Z,10.79
2019-04-22T00:54:03.831Z,10.76
2019-04-22T00:57:12.314Z,10.74
2019-04-22T01:00:27.749Z,10.58
2019-04-22T01:03:35.738Z,10.67
2019-04-22T01:06:49.529Z,10.68
2019-04-22T01:10:12.702Z,10.73
2019-04-22T01:13:12.739Z,10.68
2019-04-22T01:16:48.589Z,10.81
2019-04-22T01:23:09.618Z,10.64
2019-04-22T01:26:24.287Z,10.64
2019-04-22T01:29:33.711Z,10.59
2019-04-22T01:32:39.996Z,10.61
2019-04-22T01:36:13.901Z,10.54
2019-04-22T01:39:40.298Z,10.61
2019-04-22T01:43:07.357Z,10.50
2019-04-22T01:46:19.754Z,10.43
2019-04-22T01:49:25.742Z,10.31
2019-04-22T01:52:39.874Z,10.42
2019-04-22T01:56:01.267Z,10.36
2019-04-22T01:59:06.339Z,10.39
2019-04-22T02:02:42.287Z,10.43
2019-04-22T02:05:59.516Z,10.50
2019-04-22T02:09:24.099Z,10.33
2019-04-22T02:12:38.848Z,10.38
2019-04-22T02:16:00.495Z,10.37
2019-04-22T02:19:19.066Z,10.32
2019-04-22T02:22:51.032Z,10.29
2019-04-22T02:26:05.976Z,10.32
2019-04-22T02:29:01.664Z,10.23
2019-04-22T02:32:34.731Z,10.22
2019-04-22T02:35:55.133Z,10.09
2019-04-22T02:42:14.409Z,10.20
2019-04-22T02:45:41.800Z,10.19
2019-04-22T02:49:11.802Z,10.14
2019-04-22T02:52:11.594Z,10.13
2019-04-22T02:55:27.521Z,10.17
2019-04-22T03:02:07.608Z,10.12
2019-04-22T03:05:27.938Z,10.09
2019-04-22T03:08:45.648Z,9.85
2019-04-22T03:11:55.351Z,10.00
2019-04-22T03:18:09.613Z,9.99
2019-04-22T03:24:36.308Z,10.02
2019-04-22T03:31:31.637Z,9.99
2019-04-22T03:37:52.643Z,9.97
2019-04-22T03:44:13.927Z,9.93
2019-04-22T03:47:16.091Z,9.99
2019-04-22T03:54:03.398Z,9.85
2019-04-22T03:57:24.986Z,9.73
2019-04-22T04:00:32.596Z,9.86
2019-04-22T04:03:57.811Z,9.83
2019-04-22T04:10:19.501Z,9.76
2019-04-22T04:16:56.246Z,9.63
2019-04-22T04:20:21.554Z,9.66
2019-04-22T04:33:16.020Z,9.78
2019-04-22T04:43:08.378Z,9.76
2019-04-22T04:46:37.745Z,9.74
2019-04-22T05:06:16.475Z,9.85
2019-04-22T05:16:10.629Z,9.95
2019-04-22T05:22:28.558Z,10.04
2019-04-22T05:25:42.755Z,10.04
2019-04-22T05:29:07.983Z,9.94
2019-04-22T05:32:24.634Z,10.06
2019-04-22T05:35:40.914Z,10.17
2019-04-22T05:38:59.850Z,10.25
2019-04-22T05:42:10.419Z,10.25
2019-04-22T05:48:48.716Z,10.50
2019-04-22T05:52:06.855Z,10.65
2019-04-22T05:55:26.804Z,10.70
2019-04-22T05:58:41.581Z,10.80
2019-04-22T06:01:58.600Z,10.82
2019-04-22T06:05:19.646Z,11.02
2019-04-22T06:08:32.588Z,11.08
2019-04-22T06:11:46.467Z,11.28
2019-04-22T06:15:15.327Z,11.11
2019-04-22T06:18:27.182Z,11.26
2019-04-22T06:22:06.869Z,11.50
2019-04-22T06:25:09.979Z,11.70
2019-04-22T06:31:55.982Z,11.81
2019-04-22T06:34:51.755Z,12.07
2019-04-22T06:38:30.375Z,11.90
2019-04-22T06:41:27.393Z,12.00
2019-04-22T06:44:56.389Z,11.93
2019-04-22T06:48:09.876Z,12.17
2019-04-22T06:51:30.976Z,12.11
2019-04-22T06:54:33.021Z,12.20
2019-04-22T06:57:45.265Z,12.06
2019-04-22T07:00:46.044Z,12.33
2019-04-22T07:03:57.040Z,12.46
2019-04-22T07:07:19.654Z,12.51
2019-04-22T07:10:44.841Z,12.63
2019-04-22T07:17:15.897Z,12.79
2019-04-22T07:20:38.287Z,12.82
2019-04-22T07:24:03.129Z,12.88
2019-04-22T07:27:10.261Z,12.86
2019-04-22T07:30:28.017Z,13.05
2019-04-22T07:33:43.892Z,13.14
2019-04-22T07:37:23.129Z,13.15
2019-04-22T07:40:27.083Z,13.35
2019-04-22T07:43:41.507Z,13.40
2019-04-22T07:46:43.159Z,13.46
2019-04-22T07:49:50.890Z,13.36
2019-04-22T07:52:59.226Z,13.41
2019-04-22T07:56:08.311Z,13.42
2019-04-22T07:59:40.520Z,13.53
2019-04-22T08:03:04.244Z,13.45
2019-04-22T08:06:16.910Z,13.55
2019-04-22T08:12:47.404Z,13.98
2019-04-22T08:16:02.656Z,14.19
2019-04-22T08:19:28.171Z,14.16
2019-04-22T08:22:43.121Z,14.28
2019-04-22T08:25:55.058Z,14.29
2019-04-22T08:29:21.685Z,14.16
2019-04-22T08:36:09.040Z,14.34
2019-04-22T08:39:15.384Z,14.42
2019-04-22T08:42:46.497Z,14.46
2019-04-22T08:45:46.440Z,14.87
2019-04-22T08:48:51.621Z,15.21
2019-04-22T08:52:08.731Z,15.05
2019-04-22T08:55:29.701Z,15.10
2019-04-22T08:58:34.266Z,15.17
2019-04-22T09:01:51.769Z,15.28
2019-04-22T09:05:11.997Z,15.60
2019-04-22T09:08:48.832Z,15.61
2019-04-22T09:11:47.136Z,15.75
2019-04-22T09:15:16.291Z,15.90
2019-04-22T09:18:42.191Z,15.78
2019-04-22T09:21:32.675Z,15.67
2019-04-22T09:24:54.031Z,15.81
2019-04-22T09:28:10.483Z,16.05
2019-04-22T09:31:23.885Z,16.30
2019-04-22T09:34:46.969Z,16.30
2019-04-22T09:38:12.570Z,16.19
2019-04-22T09:41:10.413Z,16.62
2019-04-22T09:44:08.154Z,16.64
2019-04-22T09:47:26.318Z,16.77
2019-04-22T09:50:44.821Z,16.78
2019-04-22T09:57:01.885Z,16.70
2019-04-22T10:00:10.667Z,17.00
2019-04-22T10:03:20.418Z,17.08
2019-04-22T10:06:36.692Z,16.97
2019-04-22T10:09:59.779Z,17.35
2019-04-22T10:12:59.816Z,17.16
2019-04-22T10:16:17.378Z,17.37
2019-04-22T10:19:23.466Z,17.47
2019-04-22T10:22:32.363Z,17.62
2019-04-22T10:25:50.878Z,17.57
2019-04-22T10:28:55.804Z,17.62
2019-04-22T10:35:05.039Z,17.90
2019-04-22T10:38:10.232Z,17.93
2019-04-22T10:41:18.535Z,18.19
2019-04-22T10:44:27.056Z,18.09
2019-04-22T10:47:34.228Z,18.09
2019-04-22T10:50:46.588Z,18.05
2019-04-22T10:53:55.552Z,18.29
2019-04-22T10:57:03.261Z,18.16
2019-04-22T11:00:20.064Z,18.58
2019-04-22T11:03:28.308Z,18.34
2019-04-22T11:06:40.923Z,18.51
2019-04-22T11:09:52.110Z,18.40
2019-04-22T11:13:04.971Z,18.72
2019-04-22T11:16:21.750Z,18.56
2019-04-22T11:19:39.467Z,18.81
2019-04-22T11:22:47.087Z,19.06
2019-04-22T11:25:54.398Z,18.95
2019-04-22T11:29:01.618Z,18.83
2019-04-22T11:32:08.795Z,19.00
2019-04-22T11:35:16.275Z,19.19
2019-04-22T11:38:22.723Z,19.04
2019-04-22T11:41:31.145Z,19.31
2019-04-22T11:44:39.127Z,19.30
2019-04-22T11:47:47.618Z,19.64
2019-04-22T11:50:55.791Z,19.72
2019-04-22T11:54:12.657Z,19.86
2019-04-22T11:57:30.846Z,19.99
2019-04-22T12:00:49.373Z,19.98
2019-04-22T12:04:07.431Z,20.19
2019-04-22T12:07:24.412Z,20.83
2019-04-22T12:10:49.482Z,21.55
2019-04-22T12:14:00.159Z,21.93
2019-04-22T12:17:08.074Z,22.57
2019-04-22T12:20:18.007Z,23.74
2019-04-22T12:23:25.269Z,23.93
2019-04-22T12:26:32.525Z,24.45
2019-04-22T12:29:40.724Z,25.13
2019-04-22T12:32:58.086Z,26.05
2019-04-22T12:36:06.913Z,26.55
2019-04-22T12:39:15.584Z,26.59
2019-04-22T12:42:23.662Z,25.93
2019-04-22T12:45:31.984Z,26.96
2019-04-22T12:48:39.331Z,27.20
2019-04-22T12:51:47.423Z,27.67
2019-04-22T12:54:55.224Z,27.09
2019-04-22T12:58:02.835Z,28.06
2019-04-22T13:01:21.227Z,28.19
2019-04-22T13:04:30.128Z,27.75
2019-04-22T13:07:37.909Z,27.16
2019-04-22T13:10:55.539Z,27.79
2019-04-22T13:13:54.897Z,28.49
2019-04-22T13:17:02.202Z,28.37
2019-04-22T13:20:21.924Z,27.90
2019-04-22T13:23:29.869Z,28.25
2019-04-22T13:26:46.883Z,27.38
2019-04-22T13:30:06.185Z,27.68
2019-04-22T13:33:14.830Z,27.03
2019-04-22T13:36:24.498Z,27.47
2019-04-22T13:39:31.760Z,26.02
2019-04-22T13:42:49.200Z,27.52
2019-04-22T13:45:56.129Z,27.85
2019-04-22T13:49:31.062Z,26.43
2019-04-22T13:52:49.152Z,27.60
2019-04-22T13:55:57.884Z,27.14
2019-04-22T13:59:06.265Z,27.21
2019-04-22T14:02:34.905Z,27.31
2019-04-22T14:05:44.666Z,26.19
2019-04-22T14:09:03.278Z,27.02
2019-04-22T14:12:21.697Z,27.11
2019-04-22T14:15:40.148Z,26.41
2019-04-22T14:18:58.121Z,27.08
2019-04-22T14:22:07.484Z,26.09
2019-04-22T14:25:16.607Z,25.54
2019-04-22T14:28:25.485Z,25.93
2019-04-22T14:31:32.943Z,26.87
2019-04-22T14:34:40.636Z,26.03
2019-04-22T14:37:50.178Z,25.95
2019-04-22T14:40:58.542Z,27.35
2019-04-22T14:47:51.394Z,26.38
2019-04-22T14:50:53.217Z,27.19
2019-04-22T14:54:01.440Z,27.22
2019-04-22T14:56:52.044Z,26.33
2019-04-22T14:59:59.813Z,25.81
2019-04-22T15:03:08.237Z,25.96
2019-04-22T15:06:26.200Z,25.94
2019-04-22T15:09:34.189Z,25.59
2019-04-22T15:12:45.846Z,26.08
2019-04-22T15:16:13.907Z,25.73
2019-04-22T15:20:07.701Z,25.69
2019-04-22T15:23:15.071Z,25.68
2019-04-22T15:26:24.389Z,26.18
2019-04-22T15:29:41.276Z,25.87
2019-04-22T15:32:59.078Z,25.62
2019-04-22T15:36:07.647Z,25.71
2019-04-22T15:39:15.555Z,24.87
2019-04-22T15:42:28.851Z,25.45
2019-04-22T15:45:41.309Z,25.09
2019-04-22T15:48:48.554Z,25.08
2019-04-22T15:51:58.871Z,24.56
2019-04-22T15:55:14.668Z,24.59
2019-04-22T15:58:21.988Z,24.70
2019-04-22T16:01:34.057Z,24.52
2019-04-22T16:07:45.823Z,24.00
2019-04-22T16:10:53.700Z,23.86
2019-04-22T16:14:10.596Z,23.54
2019-04-22T16:17:28.575Z,23.17
2019-04-22T16:20:46.143Z,23.42
2019-04-22T16:24:02.569Z,23.41
2019-04-22T16:27:27.923Z,23.13
2019-04-22T16:30:35.269Z,22.74
2019-04-22T16:33:45.642Z,23.06
2019-04-22T16:36:52.711Z,22.44
2019-04-22T16:40:00.846Z,22.53
2019-04-22T16:43:10.163Z,22.48
2019-04-22T16:46:16.191Z,22.29
2019-04-22T16:49:23.629Z,21.99
2019-04-22T16:52:32.052Z,21.82
2019-04-22T16:55:39.399Z,21.75
2019-04-22T16:58:46.675Z,21.33
2019-04-22T17:02:12.980Z,21.22
2019-04-22T17:05:45.495Z,20.95
2019-04-22T17:08:52.993Z,21.04
2019-04-22T17:12:01.504Z,20.79
2019-04-22T17:15:12.334Z,20.86
2019-04-22T17:18:19.238Z,20.59
2019-04-22T17:21:27.756Z,20.50
2019-04-22T17:24:35.447Z,20.41
2019-04-22T17:27:43.465Z,20.30
2019-04-22T17:30:51.968Z,20.21
2019-04-22T17:34:09.656Z,19.96
2019-04-22T17:37:23.477Z,19.91
2019-04-22T17:40:48.095Z,19.90
2019-04-22T17:44:28.670Z,19.77
2019-04-22T17:47:35.918Z,19.40
2019-04-22T17:51:20.630Z,19.48
2019-04-22T17:54:26.896Z,19.19
2019-04-22T17:57:38.471Z,19.19
2019-04-22T18:01:12.279Z,19.28
2019-04-22T18:03:57.362Z,19.05
2019-04-22T18:07:29.843Z,18.63
2019-04-22T18:10:36.202Z,18.77
2019-04-22T18:13:44.660Z,18.80
2019-04-22T18:16:53.565Z,18.71
2019-04-22T18:19:54.701Z,18.59
2019-04-22T18:22:56.747Z,18.01
2019-04-22T18:26:14.853Z,18.07
2019-04-22T18:29:35.834Z,17.94
2019-04-22T18:32:52.201Z,18.26
2019-04-22T18:36:14.115Z,18.11
2019-04-22T18:39:42.388Z,17.86
2019-04-22T18:42:49.429Z,17.79
2019-04-22T18:46:09.526Z,17.81
2019-04-22T18:49:26.781Z,17.45
2019-04-22T18:53:09.533Z,17.61
2019-04-22T18:56:32.361Z,17.58
2019-04-22T18:59:25.840Z,17.10
2019-04-22T19:02:29.532Z,17.04
2019-04-22T19:05:55.771Z,17.19
2019-04-22T19:09:10.667Z,16.74
2019-04-22T19:15:47.203Z,16.85
2019-04-22T19:19:20.500Z,16.97
2019-04-22T19:22:25.288Z,16.92
2019-04-22T19:25:36.801Z,16.53
2019-04-22T19:28:49.771Z,16.56
2019-04-22T19:31:57.341Z,16.59
2019-04-22T19:35:03.546Z,16.36
2019-04-22T19:38:14.359Z,16.43
2019-04-22T19:41:40.768Z,16.39
2019-04-22T19:45:02.592Z,16.28
2019-04-22T19:48:29.130Z,16.13
2019-04-22T19:51:50.999Z,16.22
2019-04-22T19:54:47.787Z,15.93
2019-04-22T19:58:05.502Z,15.83
2019-04-22T20:01:34.593Z,15.54
2019-04-22T20:05:06.569Z,15.54
2019-04-22T20:08:14.063Z,15.67
2019-04-22T20:11:22.714Z,15.79
2019-04-22T20:14:38.225Z,15.72
2019-04-22T20:17:45.475Z,15.60
2019-04-22T20:20:56.930Z,15.47
2019-04-22T20:23:48.293Z,15.73
2019-04-22T20:27:12.326Z,15.29
2019-04-22T20:30:17.231Z,15.26
2019-04-22T20:33:29.152Z,15.08
2019-04-22T20:36:52.705Z,15.18
2019-04-22T20:39:43.810Z,15.20
2019-04-22T20:42:55.046Z,15.17
2019-04-22T20:46:03.111Z,15.08
2019-04-22T20:49:05.005Z,15.11
2019-04-22T20:52:20.317Z,15.01
2019-04-22T20:55:23.915Z,15.00
2019-04-22T20:58:32.997Z,14.94
2019-04-22T21:01:41.511Z,14.94
2019-04-22T21:04:41.082Z,14.86
2019-04-22T21:08:06.388Z,14.90
2019-04-22T21:11:04.151Z,14.93
2019-04-22T21:14:27.454Z,14.68
2019-04-22T21:17:45.897Z,14.90
2019-04-22T21:21:02.278Z,14.95
2019-04-22T21:24:20.478Z,14.87
2019-04-22T21:27:45.520Z,14.92
2019-04-22T21:30:57.179Z,14.75
2019-04-22T21:34:16.161Z,14.75
2019-04-22T21:37:38.615Z,14.61
2019-04-22T21:40:40.246Z,14.38
2019-04-22T21:43:58.186Z,14.71
2019-04-22T21:47:23.795Z,14.48
2019-04-22T21:54:04.171Z,14.41
2019-04-22T21:57:55.187Z,14.35
2019-04-22T22:01:14.073Z,14.27
2019-04-22T22:04:17.501Z,14.33
2019-04-22T22:07:13.252Z,14.15
2019-04-22T22:10:34.445Z,14.06
2019-04-22T22:13:51.498Z,14.08
2019-04-22T22:17:07.700Z,14.09
2019-04-22T22:20:14.778Z,13.92
2019-04-22T22:23:32.967Z,14.08
2019-04-22T22:26:40.625Z,13.98
2019-04-22T22:33:04.173Z,14.06
2019-04-22T22:36:03.642Z,13.90
2019-04-22T22:39:13.245Z,13.90
2019-04-22T22:42:22.466Z,13.98
2019-04-22T22:45:34.845Z,13.86
2019-04-22T22:48:58.845Z,13.72
2019-04-22T22:52:16.734Z,13.74
2019-04-22T22:55:11.992Z,13.87
2019-04-22T22:58:34.028Z,13.60
2019-04-22T23:02:01.325Z,13.70
2019-04-22T23:05:09.393Z,13.62
2019-04-22T23:08:25.746Z,13.50
2019-04-22T23:11:59.898Z,13.49
2019-04-22T23:15:00.573Z,13.49
2019-04-22T23:17:59.577Z,13.75
2019-04-22T23:21:15.105Z,13.45
2019-04-22T23:25:00.213Z,13.47
2019-04-22T23:28:28.195Z,13.43
2019-04-22T23:31:43.023Z,13.25
2019-04-22T23:35:01.311Z,13.45
2019-04-22T23:38:13.771Z,13.20
2019-04-22T23:41:52.102Z,13.32
2019-04-22T23:44:43.383Z,13.17
2019-04-22T23:47:43.199Z,13.08
2019-04-22T23:51:03.358Z,13.16
2019-04-22T23:54:24.408Z,13.27
2019-04-22T23:57:44.766Z,13.34
